createdAt,value
2023-04-29T00:01:03.347Z,99807.99
2023-04-29T00:03:08.862Z,99806.14
2023-04-29T00:05:14.982Z,99806.61
2023-04-29T00:07:20.442Z,99804.02
2023-04-29T00:09:25.461Z,99800.29
2023-04-29T00:11:30.477Z,99806.38
2023-04-29T00:13:35.452Z,99801.19
2023-04-29T00:15:40.469Z,99807.36
2023-04-29T00:17:45.546Z,99800.59
2023-04-29T00:19:51.276Z,99799.34
2023-04-29T00:21:56.946Z,99799
2023-04-29T00:24:01.944Z,99805.38
2023-04-29T00:26:07.057Z,99804.28
2023-04-29T00:28:12.141Z,99799.8
2023-04-29T00:30:17.120Z,99802.77
2023-04-29T00:32:22.105Z,99805.77
2023-04-29T00:34:27.250Z,99800.2
2023-04-29T00:36:32.412Z,99792.06
2023-04-29T00:38:37.421Z,99796.13
2023-04-29T00:40:42.484Z,99795.69
2023-04-29T00:42:47.617Z,99795.38
2023-04-29T00:44:52.870Z,99787.56
2023-04-29T00:46:57.868Z,99786.52
2023-04-29T00:49:02.996Z,99793.64
2023-04-29T00:51:07.996Z,99789.17
2023-04-29T00:53:13.033Z,99790.29
2023-04-29T00:55:18.001Z,99782.47
2023-04-29T00:57:23.019Z,99781.34
2023-04-29T00:59:27.987Z,99778.77
2023-04-29T01:01:33.092Z,99778.59
2023-04-29T01:03:38.822Z,99781.58
2023-04-29T01:05:44.234Z,99784.11
2023-04-29T01:07:49.194Z,99780.94
2023-04-29T01:09:54.686Z,99782.91
2023-04-29T01:11:59.821Z,99775.47
2023-04-29T01:14:04.841Z,99777.56
2023-04-29T01:16:10.286Z,99776.63
2023-04-29T01:18:15.432Z,99780.25
2023-04-29T01:20:20.413Z,99777.56
2023-04-29T01:22:25.476Z,99776.39
2023-04-29T01:24:30.548Z,99766.66
2023-04-29T01:26:35.519Z,99772.05
2023-04-29T01:28:40.506Z,99768.2
2023-04-29T01:30:45.467Z,99768.06
2023-04-29T01:32:50.798Z,99769.47
2023-04-29T01:34:56.222Z,99777.95
2023-04-29T01:37:01.262Z,99779.36
2023-04-29T01:39:06.340Z,99774.48
2023-04-29T02:33:10.175Z,99763.83
2023-04-29T02:35:15.273Z,99760.88
2023-04-29T02:37:20.258Z,99757.77
2023-04-29T02:39:25.251Z,99755.78
2023-04-29T02:41:30.221Z,99758.48
2023-04-29T02:43:35.187Z,99759.38
2023-04-29T02:45:40.247Z,99758.3
2023-04-29T02:47:45.336Z,99762.26
2023-04-29T02:49:50.677Z,99759.21
2023-04-29T02:51:56.183Z,99757.86
2023-04-29T02:54:01.150Z,99761.73
2023-04-29T02:56:06.157Z,99758.53
2023-04-29T02:58:11.205Z,99754.47
2023-04-29T03:00:16.233Z,99751.11
2023-04-29T03:02:21.417Z,99751.84
2023-04-29T03:04:26.881Z,99747.63
2023-04-29T03:06:32.035Z,99742.03
2023-04-29T03:08:37.031Z,99746.88
2023-04-29T03:10:43.028Z,99744.73
2023-04-29T03:12:47.972Z,99742.24
2023-04-29T03:14:52.901Z,99740.41
2023-04-29T03:16:58.056Z,99735.05
2023-04-29T03:19:03.204Z,99734.77
2023-04-29T03:21:08.208Z,99736.16
2023-04-29T03:23:13.185Z,99732.79
2023-04-29T03:25:18.169Z,99729.36
2023-04-29T03:27:23.165Z,99728.19
2023-04-29T03:29:28.175Z,99728.02
2023-04-29T03:31:33.251Z,99719.16
2023-04-29T03:33:38.317Z,99721
2023-04-29T03:35:43.286Z,99722.53
2023-04-29T03:37:48.342Z,99720.38
2023-04-29T03:39:54.039Z,99717.77
2023-04-29T03:41:59.428Z,99720.67
2023-04-29T03:44:04.522Z,99718.84
2023-04-29T03:46:09.586Z,99719.92
2023-04-29T03:48:14.620Z,99715.45
2023-04-29T03:50:19.617Z,99720.28
2023-04-29T03:52:24.606Z,99718.32
2023-04-29T03:54:29.561Z,99712.99
2023-04-29T03:56:34.713Z,99715.36
2023-04-29T03:58:39.759Z,99721.51
2023-04-29T04:00:44.711Z,99731.13
2023-04-29T04:02:50.108Z,99740.2
2023-04-29T04:04:55.778Z,99737.66
2023-04-29T04:07:00.956Z,99742.05
2023-04-29T04:09:05.967Z,99742.45
2023-04-29T04:11:11.067Z,99742.76
2023-04-29T04:13:16.030Z,99741.97
2023-04-29T04:15:21.015Z,99747.58
2023-04-29T04:17:26.055Z,99743.8
2023-04-29T04:19:31.014Z,99743.53
2023-04-29T04:21:35.988Z,99735.63
2023-04-29T04:23:41.027Z,99739.64
2023-04-29T04:25:46.050Z,99739.53
2023-04-29T04:27:51.085Z,99738.66
2023-04-29T04:29:56.037Z,99739.56
2023-04-29T04:32:01.122Z,99734.97
2023-04-29T04:34:06.202Z,99733.88
2023-04-29T04:36:11.216Z,99732.33
2023-04-29T04:38:16.267Z,99729.26
2023-04-29T04:40:21.216Z,99726.3
2023-04-29T04:42:26.209Z,99719.34
2023-04-29T04:44:31.298Z,99717.38
2023-04-29T04:46:36.365Z,99711.05
2023-04-29T04:48:41.423Z,99700.84
2023-04-29T04:50:46.386Z,99693.33
2023-04-29T04:52:51.499Z,99702.48
2023-04-29T04:54:56.492Z,99707.92
2023-04-29T04:57:01.472Z,99717.25
2023-04-29T04:59:06.670Z,99724.51
2023-04-29T05:01:11.801Z,99727.22
2023-04-29T05:03:17.120Z,99732.51
2023-04-29T05:05:22.426Z,99732.04
2023-04-29T05:07:27.420Z,99733.38
2023-04-29T05:09:32.456Z,99726.17
2023-04-29T05:11:37.564Z,99725.08
2023-04-29T05:13:42.544Z,99727.83
2023-04-29T05:15:47.552Z,99725.94
2023-04-29T05:17:52.685Z,99729.78
2023-04-29T05:19:57.730Z,99728.94
2023-04-29T05:22:02.740Z,99727.61
2023-04-29T05:24:07.842Z,99728.16
2023-04-29T05:26:12.869Z,99725.74
2023-04-29T05:28:17.824Z,99726.91
2023-04-29T05:30:22.880Z,99726.64
2023-04-29T05:32:28.008Z,99724.04
2023-04-29T05:34:33.045Z,99732.98
2023-04-29T05:36:38.033Z,99736.05
2023-04-29T05:38:43.009Z,99735.94
2023-04-29T05:40:48.057Z,99734.06
2023-04-29T05:42:53.027Z,99733.51
2023-04-29T05:44:58.041Z,99735.44
2023-04-29T05:47:03.025Z,99735.3
2023-04-29T05:49:08.016Z,99736.89
2023-04-29T05:51:13.039Z,99732.97
2023-04-29T05:53:18.036Z,99735.59
2023-04-29T05:55:23.009Z,99739.77
2023-04-29T05:57:28.023Z,99742.94
2023-04-29T05:59:33.021Z,99744.85
2023-04-29T06:01:38.024Z,99744.01
2023-04-29T06:03:43.389Z,99743.04
2023-04-29T06:05:49.324Z,99745.28
2023-04-29T06:07:54.953Z,99741.73
2023-04-29T06:10:00.056Z,99739.64
2023-04-29T06:12:05.086Z,99737.72
2023-04-29T06:14:10.060Z,99738.78
2023-04-29T06:16:15.176Z,99742.76
2023-04-29T06:18:20.244Z,99741.78
2023-04-29T06:20:25.304Z,99744.2
2023-04-29T06:22:30.301Z,99741.25
2023-04-29T06:24:35.308Z,99748
2023-04-29T06:26:40.314Z,99746.63
2023-04-29T06:28:45.312Z,99749.04
2023-04-29T06:30:50.368Z,99756.44
2023-04-29T06:32:55.526Z,99748.91
2023-04-29T06:35:00.637Z,99752.52
2023-04-29T06:37:05.635Z,99756.59
2023-04-29T06:39:10.645Z,99756.22
2023-04-29T06:41:15.683Z,99755.86
2023-04-29T06:43:20.671Z,99757.32
2023-04-29T06:45:25.683Z,99756.89
2023-04-29T06:47:30.773Z,99759.41
2023-04-29T06:49:35.934Z,99759.69
2023-04-29T06:51:40.980Z,99760.34
2023-04-29T06:53:46.001Z,99761.42
2023-04-29T06:55:50.963Z,99763.69
2023-04-29T06:57:55.961Z,99759.61
2023-04-29T07:00:01.052Z,99760
2023-04-29T07:02:06.050Z,99761.53
2023-04-29T07:04:11.171Z,99760.77
2023-04-29T07:06:16.248Z,99761.69
2023-04-29T07:08:21.268Z,99759.95
2023-04-29T07:10:26.356Z,99760.14
2023-04-29T07:12:31.328Z,99758.97
2023-04-29T07:14:36.327Z,99757.2
2023-04-29T07:16:41.732Z,99756.23
2023-04-29T07:18:46.716Z,99761.44
2023-04-29T07:20:51.623Z,99763.8
2023-04-29T07:22:56.836Z,99759.01
2023-04-29T07:25:01.865Z,99759.75
2023-04-29T07:27:06.920Z,99764.75
2023-04-29T07:29:11.936Z,99762.57
2023-04-29T07:31:17.012Z,99760.02
2023-04-29T07:33:22.133Z,99761.33
2023-04-29T07:35:27.150Z,99762.03
2023-04-29T07:37:32.114Z,99759.38
2023-04-29T07:39:37.136Z,99755.23
2023-04-29T07:41:42.168Z,99756.06
2023-04-29T07:43:47.188Z,99758.22
2023-04-29T07:45:52.286Z,99758.01
2023-04-29T07:47:57.485Z,99759.22
2023-04-29T07:50:02.574Z,99762.73
2023-04-29T07:52:07.615Z,99764.78
2023-04-29T07:54:12.638Z,99767.52
2023-04-29T07:56:17.622Z,99765.15
2023-04-29T07:58:22.752Z,99765.49
2023-04-29T08:00:27.816Z,99766.66
2023-04-29T08:02:33.265Z,99765.72
2023-04-29T08:04:38.961Z,99766.7
2023-04-29T08:06:44.428Z,99769.28
2023-04-29T08:08:49.442Z,99764.05
2023-04-29T08:10:54.468Z,99768.33
2023-04-29T08:12:59.506Z,99769.56
2023-04-29T08:15:07.164Z,99764.42
2023-04-29T08:17:13.924Z,99773.14
2023-04-29T08:19:18.931Z,99774.55
2023-04-29T08:21:23.923Z,99770.86
2023-04-29T08:23:28.938Z,99777.98
2023-04-29T08:25:33.927Z,99777.22
2023-04-29T08:27:39.132Z,99781.83
2023-04-29T08:29:44.130Z,99781.61
2023-04-29T08:31:49.223Z,99782.16
2023-04-29T08:33:54.338Z,99789.3
2023-04-29T08:35:59.339Z,99788.88
2023-04-29T08:38:04.367Z,99795.17
2023-04-29T08:40:09.379Z,99792.16
2023-04-29T08:42:14.394Z,99794.91
2023-04-29T08:44:19.383Z,99797.76
2023-04-29T08:46:24.716Z,99796.56
2023-04-29T08:48:30.202Z,99799.78
2023-04-29T08:50:35.436Z,99795.45
2023-04-29T08:52:40.408Z,99797.41
2023-04-29T08:54:45.427Z,99802.3
2023-04-29T08:56:50.492Z,99804.58
2023-04-29T08:58:55.524Z,99806.14
2023-04-29T09:01:00.585Z,99807.41
2023-04-29T09:03:05.844Z,99806.6
2023-04-29T09:05:11.066Z,99807.77
2023-04-29T09:07:16.145Z,99809.52
2023-04-29T09:09:22.215Z,99810.05
2023-04-29T09:11:27.198Z,99810.5
2023-04-29T09:13:32.222Z,99812.77
2023-04-29T09:15:37.273Z,99807.09
2023-04-29T09:17:42.462Z,99808.16
2023-04-29T09:19:47.650Z,99811.09
2023-04-29T09:21:52.678Z,99812.84
2023-04-29T09:23:57.723Z,99811.25
2023-04-29T09:26:02.753Z,99808.3
2023-04-29T09:28:08.128Z,99808.44
2023-04-29T09:30:13.213Z,99806.44
2023-04-29T09:32:18.224Z,99805.79
2023-04-29T09:34:23.388Z,99808.09
2023-04-29T09:36:28.408Z,99807.02
2023-04-29T09:38:33.415Z,99810.31
2023-04-29T09:40:59.288Z,99804.44
2023-04-29T09:43:06.396Z,99805.3
2023-04-29T09:45:11.420Z,99808.48
2023-04-29T09:47:16.447Z,99809.46
2023-04-29T09:49:21.446Z,99811.18
2023-04-29T09:51:26.528Z,99805.39
2023-04-29T09:53:31.785Z,99803.06
2023-04-29T09:55:37.124Z,99809.97
2023-04-29T09:57:45.451Z,99818.02
2023-04-29T09:59:50.524Z,99817.97
2023-04-29T10:01:55.691Z,99817.84
2023-04-29T10:04:01.180Z,99816.39
2023-04-29T10:06:06.251Z,99821.59
2023-04-29T10:08:11.271Z,99823.8
2023-04-29T10:10:16.329Z,99826.12
2023-04-29T10:12:21.726Z,99824
2023-04-29T10:14:26.714Z,99827.33
2023-04-29T10:16:32.064Z,99831.58
2023-04-29T10:18:37.570Z,99825.66
2023-04-29T10:20:42.718Z,99823.56
2023-04-29T10:22:47.743Z,99823.81
2023-04-29T10:24:53.278Z,99828.13
2023-04-29T10:26:58.501Z,99824.66
2023-04-29T10:29:03.564Z,99817.69
2023-04-29T10:31:08.727Z,99817.71
2023-04-29T10:33:13.981Z,99811.75
2023-04-29T10:35:19.074Z,99811.73
2023-04-29T10:37:24.241Z,99807.84
2023-04-29T10:39:29.190Z,99808.95
2023-04-29T10:41:34.254Z,99802.07
2023-04-29T10:43:39.225Z,99799.58
2023-04-29T10:45:44.229Z,99803.9
2023-04-29T10:47:49.306Z,99799.84
2023-04-29T10:49:54.499Z,99802.58
2023-04-29T10:51:59.552Z,99801.3
2023-04-29T10:54:04.566Z,99802.63
2023-04-29T10:56:09.602Z,99802.62
2023-04-29T10:58:14.715Z,99796.81
2023-04-29T11:00:19.759Z,99798.33
2023-04-29T11:02:24.917Z,99799.92
2023-04-29T11:04:30.130Z,99796.28
2023-04-29T11:06:35.240Z,99795.04
2023-04-29T11:08:40.298Z,99798.34
2023-04-29T11:10:45.426Z,99795.7
2023-04-29T11:12:50.438Z,99797.44
2023-04-29T11:14:56.044Z,99792.94
2023-04-29T11:17:01.163Z,99786.9
2023-04-29T11:19:06.252Z,99793.96
2023-04-29T11:21:11.402Z,99791.97
2023-04-29T11:23:16.438Z,99793.34
2023-04-29T11:25:21.585Z,99791.8
2023-04-29T11:27:26.721Z,99792.14
2023-04-29T11:29:31.700Z,99788.71
2023-04-29T11:31:37.054Z,99792.34
2023-04-29T11:33:42.189Z,99784.63
2023-04-29T11:35:47.234Z,99788.52
2023-04-29T11:37:52.294Z,99792.69
2023-04-29T11:39:57.253Z,99790.76
2023-04-29T11:42:02.216Z,99792.66
2023-04-29T11:44:07.263Z,99794.67
2023-04-29T11:46:12.385Z,99794.87
2023-04-29T11:48:17.634Z,99794.84
2023-04-29T11:50:22.626Z,99792.74
2023-04-29T11:52:27.673Z,99794.44
2023-04-29T11:54:32.641Z,99793.44
2023-04-29T11:56:37.590Z,99789.7
2023-04-29T11:58:42.566Z,99786.36
2023-04-29T12:00:47.541Z,99792.78
2023-04-29T12:02:52.900Z,99794.48
2023-04-29T12:04:59.392Z,99797.52
2023-04-29T12:07:05.839Z,99795.72
2023-04-29T12:09:10.762Z,99796.99
2023-04-29T12:11:15.767Z,99801.56
2023-04-29T12:13:20.848Z,99801.09
2023-04-29T12:15:25.863Z,99800.41
2023-04-29T12:17:31.015Z,99800.39
2023-04-29T12:19:36.141Z,99802.02
2023-04-29T12:21:41.137Z,99801.27
2023-04-29T12:23:46.158Z,99801.38
2023-04-29T12:25:51.123Z,99800.2
2023-04-29T12:27:56.105Z,99799.41
2023-04-29T12:30:01.070Z,99795.56
2023-04-29T12:32:06.066Z,99793.9
2023-04-29T12:34:11.661Z,99798.47
2023-04-29T12:36:16.668Z,99792.79
2023-04-29T12:38:21.695Z,99797.31
2023-04-29T12:40:27.871Z,99793.96
2023-04-29T12:42:34.541Z,99793.34
2023-04-29T12:44:39.735Z,99793.15
2023-04-29T12:46:45.018Z,99800.83
2023-04-29T12:48:50.053Z,99791.98
2023-04-29T12:50:55.052Z,99792.78
2023-04-29T12:53:00.014Z,99794.3
2023-04-29T12:55:05.131Z,99791.3
2023-04-29T12:57:11.402Z,99791.67
2023-04-29T12:59:16.449Z,99792.71
2023-04-29T13:01:21.669Z,99790.34
2023-04-29T13:03:27.355Z,99793.14
2023-04-29T13:05:33.054Z,99784.25
2023-04-29T13:07:38.544Z,99787.05
2023-04-29T13:09:43.674Z,99782.35
2023-04-29T13:11:48.690Z,99784
2023-04-29T13:13:53.705Z,99781.3
2023-04-29T13:15:58.860Z,99775.95
2023-04-29T13:18:06.873Z,99779.07
2023-04-29T13:20:12.490Z,99782.3
2023-04-29T13:22:17.546Z,99779.37
2023-04-29T13:24:22.535Z,99773.2
2023-04-29T13:26:28.172Z,99773.11
2023-04-29T13:28:33.243Z,99771.77
2023-04-29T13:30:38.249Z,99777.73
2023-04-29T13:32:54.636Z,99775.26
2023-04-29T13:35:06.991Z,99778.91
2023-04-29T13:37:12.003Z,99779.16
2023-04-29T13:39:17.039Z,99774.84
2023-04-29T13:41:25.990Z,99776.82
2023-04-29T13:43:40.647Z,99777.41
2023-04-29T13:45:49.744Z,99777.27
2023-04-29T13:48:25.798Z,99783.39
2023-04-29T13:56:01.570Z,99779.66
2023-04-29T13:59:50.542Z,99776.01
2023-04-29T14:02:26.406Z,99780.89
2023-04-29T14:04:32.648Z,99777.31
2023-04-29T14:06:37.920Z,99778.02
2023-04-29T14:08:42.931Z,99781.22
2023-04-29T14:10:47.980Z,99782.66
2023-04-29T14:12:53.005Z,99785.48
2023-04-29T14:15:00.886Z,99781.07
2023-04-29T14:17:06.034Z,99792.2
2023-04-29T14:19:11.116Z,99796.23
2023-04-29T14:21:16.162Z,99790.25
2023-04-29T14:23:21.192Z,99791.42
2023-04-29T14:25:29.163Z,99792.42
2023-04-29T14:27:37.659Z,99790.3
2023-04-29T14:29:42.644Z,99796.59
2023-04-29T14:31:47.760Z,99797.81
2023-04-29T14:33:53.177Z,99795.48
2023-04-29T14:35:58.172Z,99792.18
2023-04-29T14:38:03.170Z,99791.81
2023-04-29T14:40:08.214Z,99793.42
2023-04-29T14:42:13.169Z,99791.67
2023-04-29T14:44:18.135Z,99796.45
2023-04-29T14:46:23.248Z,99804.25
2023-04-29T14:48:28.353Z,99807.08
2023-04-29T14:50:33.522Z,99807.94
2023-04-29T14:52:38.694Z,99810.76
2023-04-29T14:54:43.666Z,99808.78
2023-04-29T14:56:48.797Z,99818.84
2023-04-29T14:58:53.935Z,99832.13
2023-04-29T15:00:58.900Z,99832.2
2023-04-29T15:03:05.518Z,99835.08
2023-04-29T15:05:10.803Z,99840.28
2023-04-29T15:07:15.934Z,99852.95
2023-04-29T15:09:20.930Z,99864.11
2023-04-29T15:11:25.865Z,99882.38
2023-04-29T15:13:32.733Z,99884.21
2023-04-29T15:15:37.776Z,99885.49
2023-04-29T15:17:42.874Z,99882.02
2023-04-29T15:19:47.888Z,99876.73
2023-04-29T15:21:52.954Z,99880.02
2023-04-29T15:23:58.041Z,99878.59
2023-04-29T15:26:03.115Z,99878.48
2023-04-29T15:28:08.126Z,99878.85
2023-04-29T15:30:13.098Z,99877.31
2023-04-29T15:32:18.162Z,99885.31
2023-04-29T15:34:23.233Z,99883.22
2023-04-29T15:36:28.119Z,99886.23
2023-04-29T15:38:33.036Z,99889.27
2023-04-29T15:40:37.972Z,99889.84
2023-04-29T15:42:42.901Z,99888.66
2023-04-29T15:44:47.969Z,99892.53
2023-04-29T15:46:53.023Z,99894
2023-04-29T15:48:58.059Z,99897.38
2023-04-29T15:51:03.037Z,99899.78
2023-04-29T15:53:08.054Z,99900.19
2023-04-29T15:55:13.048Z,99895.68
2023-04-29T15:57:18.836Z,99901.39
2023-04-29T15:59:23.857Z,99900.41
2023-04-29T16:01:28.989Z,99902.36
2023-04-29T16:03:34.285Z,99903.68
2023-04-29T16:05:39.439Z,99908.16
2023-04-29T16:07:44.415Z,99911.31
2023-04-29T16:09:49.425Z,99909.96
2023-04-29T16:11:54.458Z,99916.66
2023-04-29T16:13:59.467Z,99920.25
2023-04-29T16:16:04.463Z,99916.16
2023-04-29T16:18:09.520Z,99922.34
2023-04-29T16:20:14.543Z,99916.62
2023-04-29T16:22:19.544Z,99918.67
2023-04-29T16:24:24.565Z,99921.95
2023-04-29T16:26:29.625Z,99927.31
2023-04-29T16:28:34.623Z,99922.66
2023-04-29T16:30:39.604Z,99928.27
2023-04-29T16:32:44.633Z,99934.61
2023-04-29T16:34:49.750Z,99939.43
2023-04-29T16:36:54.948Z,99939.59
2023-04-29T16:38:59.997Z,99936.77
2023-04-29T16:41:05.006Z,99942.64
2023-04-29T16:43:10.011Z,99946.61
2023-04-29T16:45:15.030Z,99947.07
2023-04-29T16:47:20.038Z,99949.39
2023-04-29T16:49:25.142Z,99946.21
2023-04-29T16:51:30.303Z,99946.45
2023-04-29T16:53:35.309Z,99949.42
2023-04-29T16:55:40.480Z,99946.77
2023-04-29T16:57:45.535Z,99948.61
2023-04-29T16:59:50.539Z,99950.05
2023-04-29T17:01:56.091Z,99952.75
2023-04-29T17:04:01.229Z,99957.03
2023-04-29T17:06:06.378Z,99955.33
2023-04-29T17:08:11.448Z,99957.22
2023-04-29T17:10:16.525Z,99955.89
2023-04-29T17:12:21.597Z,99961.52
2023-04-29T17:14:26.606Z,99967.48
2023-04-29T17:16:31.747Z,99963
2023-04-29T17:18:36.885Z,99970.36
2023-04-29T17:20:41.858Z,99975.89
2023-04-29T17:22:46.837Z,99967.52
2023-04-29T17:24:52.283Z,99975.03
2023-04-29T17:26:57.285Z,99979.75
2023-04-29T17:29:02.267Z,99984.82
2023-04-29T17:31:07.420Z,99986.13
2023-04-29T17:33:12.589Z,99989.52
2023-04-29T17:35:17.657Z,100000.65
2023-04-29T17:37:22.752Z,100006.05
2023-04-29T17:39:27.812Z,100014.33
2023-04-29T17:41:32.824Z,100021.34
2023-04-29T17:43:37.906Z,100019.53
2023-04-29T17:45:43.146Z,100025.05
2023-04-29T17:47:48.591Z,100034.27
2023-04-29T17:49:54.459Z,100028.74
2023-04-29T17:52:00.780Z,100030.98
2023-04-29T17:54:05.959Z,100032.75
2023-04-29T17:56:11.059Z,100036.69
2023-04-29T17:58:16.132Z,100040.36
2023-04-29T18:00:21.184Z,100033.09
2023-04-29T18:02:26.436Z,100035.56
2023-04-29T18:04:31.602Z,100035.03
2023-04-29T18:06:36.953Z,100042.72
2023-04-29T18:08:42.044Z,100042.48
2023-04-29T18:10:47.187Z,100044.63
2023-04-29T18:12:52.260Z,100047.52
2023-04-29T18:14:57.386Z,100050.02
2023-04-29T18:17:02.689Z,100049.7
2023-04-29T18:19:07.946Z,100051.44
2023-04-29T18:21:13.471Z,100053.66
2023-04-29T18:23:18.548Z,100058.78
2023-04-29T18:25:23.594Z,100066.15
2023-04-29T18:27:28.635Z,100068.58
2023-04-29T18:29:33.803Z,100074.57
2023-04-29T18:31:38.987Z,100073.63
2023-04-29T18:33:44.290Z,100080.03
2023-04-29T18:35:49.433Z,100083.85
2023-04-29T18:37:54.450Z,100086.48
2023-04-29T18:39:59.599Z,100094.16
2023-04-29T18:42:04.692Z,100097.68
2023-04-29T18:44:09.774Z,100098.72
2023-04-29T18:46:14.876Z,100109.2
2023-04-29T18:48:20.042Z,100105.04
2023-04-29T18:50:25.154Z,100113.3
2023-04-29T18:52:30.189Z,100111.74
2023-04-29T18:54:35.271Z,100112.3
2023-04-29T18:56:41.517Z,100108.72
2023-04-29T18:58:46.686Z,100118.16
2023-04-29T19:00:51.839Z,100113.8
2023-04-29T19:02:57.288Z,100117.69
2023-04-29T19:05:02.568Z,100117.71
2023-04-29T19:07:07.965Z,100124.13
2023-04-29T19:09:12.906Z,100124.22
2023-04-29T19:11:17.875Z,100129.88
2023-04-29T19:13:22.918Z,100129.61
2023-04-29T19:15:28.181Z,100132.79
2023-04-29T19:17:33.819Z,100130.16
2023-04-29T19:19:38.939Z,100134.04
2023-04-29T19:21:44.103Z,100136.08
2023-04-29T19:23:49.338Z,100137.73
2023-04-29T19:25:54.408Z,100137.95
2023-04-29T19:28:00.080Z,100141.16
2023-04-29T19:30:05.196Z,100142.2
2023-04-29T19:32:10.294Z,100147.08
2023-04-29T19:34:15.424Z,100141.92
2023-04-29T19:36:20.534Z,100148.18
2023-04-29T19:38:25.688Z,100145.19
2023-04-29T19:40:30.820Z,100149.03
2023-04-29T19:42:35.857Z,100149.44
2023-04-29T19:44:40.943Z,100154.11
2023-04-29T19:46:46.615Z,100152.91
2023-04-29T19:48:52.067Z,100154.98
2023-04-29T19:50:57.163Z,100159.65
2023-04-29T19:53:02.253Z,100156.34
2023-04-29T19:55:07.377Z,100155.24
2023-04-29T19:57:12.745Z,100156.2
2023-04-29T19:59:17.929Z,100157.67
2023-04-29T20:01:23.166Z,100159.77
2023-04-29T20:03:28.449Z,100160.66
2023-04-29T20:05:33.606Z,100163.07
2023-04-29T20:07:38.765Z,100163.59
2023-04-29T20:09:43.815Z,100170.42
2023-04-29T20:11:49.035Z,100173.09
2023-04-29T20:13:54.102Z,100178.58
2023-04-29T20:15:59.208Z,100180.17
2023-04-29T20:18:04.582Z,100180.01
2023-04-29T20:20:09.857Z,100183.58
2023-04-29T20:22:15.027Z,100182.64
2023-04-29T20:24:20.063Z,100182.6
2023-04-29T20:26:25.141Z,100183.84
2023-04-29T20:28:30.305Z,100185.89
2023-04-29T20:30:35.445Z,100177.86
2023-04-29T20:32:40.707Z,100180.47
2023-04-29T20:34:45.999Z,100180.33
2023-04-29T20:36:51.059Z,100183.31
2023-04-29T20:38:56.128Z,100187.22
2023-04-29T20:41:01.191Z,100188.63
2023-04-29T20:43:06.235Z,100185.49
2023-04-29T20:45:11.416Z,100192.43
2023-04-29T20:47:16.646Z,100191
2023-04-29T20:49:21.687Z,100199.6
2023-04-29T20:51:26.783Z,100201.45
2023-04-29T20:53:31.893Z,100199.73
2023-04-29T20:55:37.129Z,100208.49
2023-04-29T20:57:42.165Z,100209.81
2023-04-29T20:59:47.294Z,100209.83
2023-04-29T21:01:52.895Z,100210.86
2023-04-29T21:03:58.412Z,100209.55
2023-04-29T21:06:03.648Z,100216.39
2023-04-29T21:08:08.838Z,100216.61
2023-04-29T21:10:13.896Z,100217.91
2023-04-29T21:12:19.113Z,100218.76
2023-04-29T21:14:24.584Z,100223.64
2023-04-29T21:16:29.742Z,100229.45
2023-04-29T21:18:34.820Z,100234.65
2023-04-29T21:20:39.924Z,100244.83
2023-04-29T21:22:44.983Z,100240.56
2023-04-29T21:24:50.214Z,100239.48
2023-04-29T21:26:55.287Z,100239.46
2023-04-29T21:29:00.372Z,100241.22
2023-04-29T21:31:05.540Z,100247.56
2023-04-29T21:33:10.851Z,100248.98
2023-04-29T21:35:15.962Z,100252.29
2023-04-29T21:37:21.018Z,100254.13
2023-04-29T21:39:26.141Z,100261.88
2023-04-29T21:41:31.211Z,100256.81
2023-04-29T21:43:36.401Z,100260.34
2023-04-29T21:45:41.419Z,100266.47
2023-04-29T21:47:46.643Z,100267.92
2023-04-29T21:49:52.460Z,100268.71
2023-04-29T21:51:58.032Z,100268.47
2023-04-29T21:54:03.100Z,100274.91
2023-04-29T21:56:08.171Z,100267.05
2023-04-29T21:58:13.325Z,100269.61
2023-04-29T22:00:18.389Z,100270.85
2023-04-29T22:02:23.591Z,100273.27
2023-04-29T22:04:28.770Z,100276.41
2023-04-29T22:06:33.919Z,100277.23
2023-04-29T22:08:39.133Z,100279.2
2023-04-29T22:10:44.176Z,100277.81
2023-04-29T22:12:49.253Z,100282.55
2023-04-29T22:14:54.317Z,100286.88
2023-04-29T22:16:59.471Z,100287.33
2023-04-29T22:19:04.520Z,100291.34
2023-04-29T22:21:09.724Z,100294.08
2023-04-29T22:23:14.778Z,100294.76
2023-04-29T22:25:19.957Z,100293.43
2023-04-29T22:27:25.067Z,100296.4
2023-04-29T22:29:30.105Z,100298.23
2023-04-29T22:31:35.189Z,100297.79
2023-04-29T22:33:40.339Z,100297.19
2023-04-29T22:35:45.575Z,100293.47
2023-04-29T22:37:50.675Z,100293
2023-04-29T22:39:56.489Z,100302.03
2023-04-29T22:42:02.006Z,100309.77
2023-04-29T22:44:07.055Z,100310.92
2023-04-29T22:46:12.308Z,100309.48
2023-04-29T22:48:17.594Z,100312.26
2023-04-29T22:50:22.756Z,100320.63
2023-04-29T22:52:27.790Z,100326.01
2023-04-29T22:54:33.065Z,100326.39
2023-04-29T22:56:38.133Z,100323.83
2023-04-29T22:58:43.163Z,100328.21
2023-04-29T23:00:48.211Z,100324.58
2023-04-29T23:02:53.432Z,100324.83
2023-04-29T23:04:59.064Z,100330.81
2023-04-29T23:07:04.308Z,100332.72
2023-04-29T23:09:09.484Z,100329.36
2023-04-29T23:11:14.644Z,100331.09
2023-04-29T23:13:19.786Z,100339.03
2023-04-29T23:15:24.838Z,100344.5
2023-04-29T23:17:29.989Z,100349.85
2023-04-29T23:19:35.151Z,100350.91
2023-04-29T23:21:40.271Z,100349.3
2023-04-29T23:23:45.342Z,100347.13
2023-04-29T23:25:50.433Z,100352.06
2023-04-29T23:27:55.466Z,100350.49
2023-04-29T23:30:00.747Z,100352.52
2023-04-29T23:32:05.773Z,100357.59
2023-04-29T23:34:10.788Z,100351.7
2023-04-29T23:36:15.895Z,100355.06
2023-04-29T23:38:21.052Z,100358.3
2023-04-29T23:40:26.148Z,100354.73
2023-04-29T23:42:31.193Z,100359.5
2023-04-29T23:44:36.214Z,100363.95
2023-04-29T23:46:41.416Z,100360.98
2023-04-29T23:48:46.727Z,100359
2023-04-29T23:50:51.760Z,100358.47
2023-04-29T23:52:56.849Z,100357.55
2023-04-29T23:55:02.012Z,100356.89
2023-04-29T23:57:07.109Z,100359.41
2023-04-29T23:59:12.122Z,100360.25
